createdAt,value
2022-09-02T00:00:06.384Z,0.00
2022-09-02T00:01:06.384Z,0.00
2022-09-02T00:02:06.555Z,0.00
2022-09-02T00:03:06.544Z,0.00
2022-09-02T00:04:06.352Z,0.00
2022-09-02T00:05:06.339Z,0.00
2022-09-02T00:06:06.340Z,0.00
2022-09-02T00:07:06.317Z,0.00
2022-09-02T00:08:06.301Z,0.00
2022-09-02T00:09:06.292Z,0.00
2022-09-02T00:10:06.283Z,0.00
2022-09-02T00:11:06.274Z,0.00
2022-09-02T00:12:06.262Z,0.00
2022-09-02T00:13:06.254Z,0.00
2022-09-02T00:14:06.241Z,0.00
2022-09-02T00:15:06.233Z,0.00
2022-09-02T00:16:06.289Z,0.00
2022-09-02T00:17:06.214Z,0.00
2022-09-02T00:18:06.201Z,0.00
2022-09-02T00:19:06.192Z,0.00
2022-09-02T00:20:06.179Z,0.00
2022-09-02T00:21:06.170Z,0.00
2022-09-02T00:22:06.161Z,0.00
2022-09-02T00:23:06.149Z,0.00
2022-09-02T00:24:06.139Z,0.00
2022-09-02T00:25:06.280Z,0.00
2022-09-02T00:26:06.117Z,0.00
2022-09-02T00:27:06.112Z,0.00
2022-09-02T00:28:06.099Z,0.00
2022-09-02T00:29:06.089Z,0.00
2022-09-02T00:30:06.078Z,0.00
2022-09-02T00:31:06.066Z,0.00
2022-09-02T00:32:06.125Z,0.00
2022-09-02T00:33:06.049Z,0.00
2022-09-02T00:34:06.039Z,0.00
2022-09-02T00:35:06.031Z,0.00
2022-09-02T00:36:06.017Z,0.00
2022-09-02T00:37:06.007Z,0.00
2022-09-02T00:38:05.997Z,0.00
2022-09-02T00:39:05.989Z,0.00
2022-09-02T00:40:06.045Z,0.00
2022-09-02T00:41:05.966Z,0.00
2022-09-02T00:42:05.957Z,0.00
2022-09-02T00:43:05.947Z,0.00
2022-09-02T00:44:05.934Z,0.00
2022-09-02T00:45:05.928Z,0.00
2022-09-02T00:46:06.017Z,0.00
2022-09-02T00:47:05.904Z,0.00
2022-09-02T00:48:05.896Z,0.00
2022-09-02T00:49:05.891Z,0.00
2022-09-02T00:50:05.875Z,0.00
2022-09-02T00:51:06.822Z,0.00
2022-09-02T00:52:05.856Z,0.00
2022-09-02T00:53:05.846Z,0.00
2022-09-02T00:54:05.836Z,0.00
2022-09-02T00:55:05.827Z,0.00
2022-09-02T00:56:05.814Z,0.00
2022-09-02T00:57:05.804Z,0.00
2022-09-02T00:58:09.493Z,0.00
2022-09-02T00:59:05.782Z,0.00
2022-09-02T01:00:05.774Z,0.00
2022-09-02T01:01:05.880Z,0.00
2022-09-02T01:02:05.853Z,0.00
2022-09-02T01:03:05.744Z,0.00
2022-09-02T01:04:05.733Z,0.00
2022-09-02T01:05:05.721Z,0.00
2022-09-02T01:06:05.760Z,0.00
2022-09-02T01:07:05.701Z,0.00
2022-09-02T01:08:05.691Z,0.00
2022-09-02T01:09:05.683Z,0.00
2022-09-02T01:10:05.674Z,0.00
2022-09-02T01:11:06.531Z,0.00
2022-09-02T01:12:05.651Z,0.00
2022-09-02T01:13:05.643Z,0.00
2022-09-02T01:14:05.634Z,0.00
2022-09-02T01:15:05.620Z,0.00
2022-09-02T01:16:05.777Z,0.00
2022-09-02T01:17:05.602Z,0.00
2022-09-02T01:18:05.588Z,0.00
2022-09-02T01:19:05.581Z,0.00
2022-09-02T01:20:05.569Z,0.00
2022-09-02T01:21:05.560Z,0.00
2022-09-02T01:22:05.548Z,0.00
2022-09-02T01:23:05.539Z,0.00
2022-09-02T01:24:05.528Z,0.00
2022-09-02T01:25:05.522Z,0.00
2022-09-02T01:26:05.509Z,0.00
2022-09-02T01:27:05.497Z,0.00
2022-09-02T01:28:05.486Z,0.00
2022-09-02T01:29:05.478Z,0.00
2022-09-02T01:30:05.466Z,0.00
2022-09-02T01:31:05.512Z,0.00
2022-09-02T01:32:05.451Z,0.00
2022-09-02T01:33:05.438Z,0.00
2022-09-02T01:34:05.425Z,0.00
2022-09-02T01:35:05.420Z,0.00
2022-09-02T01:36:05.405Z,0.00
2022-09-02T01:37:05.397Z,0.00
2022-09-02T01:38:05.384Z,0.00
2022-09-02T01:39:05.374Z,0.00
2022-09-02T01:40:05.424Z,0.00
2022-09-02T01:41:05.352Z,0.00
2022-09-02T01:42:05.343Z,0.00
2022-09-02T01:43:05.333Z,0.00
2022-09-02T01:44:05.326Z,0.00
2022-09-02T01:45:05.313Z,0.00
2022-09-02T01:46:05.307Z,0.00
2022-09-02T01:47:05.392Z,0.00
2022-09-02T01:48:05.293Z,0.00
2022-09-02T01:49:05.274Z,0.00
2022-09-02T01:50:05.263Z,0.00
2022-09-02T01:51:05.248Z,0.00
2022-09-02T01:52:05.243Z,0.00
2022-09-02T01:53:05.235Z,0.00
2022-09-02T01:54:05.229Z,0.00
2022-09-02T01:55:05.210Z,0.00
2022-09-02T01:56:05.201Z,0.00
2022-09-02T01:57:05.190Z,0.00
2022-09-02T01:58:05.178Z,0.00
2022-09-02T01:59:05.168Z,0.00
2022-09-02T02:00:05.158Z,0.00
2022-09-02T02:01:05.264Z,0.00
2022-09-02T02:02:05.193Z,0.00
2022-09-02T02:03:05.126Z,0.00
2022-09-02T02:04:05.119Z,0.00
2022-09-02T02:05:05.109Z,0.00
2022-09-02T02:06:05.097Z,0.00
2022-09-02T02:07:05.088Z,0.00
2022-09-02T02:08:05.078Z,0.00
2022-09-02T02:09:05.066Z,0.00
2022-09-02T02:10:05.053Z,0.00
2022-09-02T02:11:05.045Z,0.00
2022-09-02T02:12:05.033Z,0.00
2022-09-02T02:13:05.026Z,0.00
2022-09-02T02:14:05.013Z,0.00
2022-09-02T02:15:05.007Z,0.00
2022-09-02T02:16:05.053Z,0.00
2022-09-02T02:17:04.985Z,0.00
2022-09-02T02:18:04.974Z,0.00
2022-09-02T02:19:04.964Z,0.00
2022-09-02T02:20:04.952Z,0.00
2022-09-02T02:21:04.942Z,0.00
2022-09-02T02:22:04.931Z,0.00
2022-09-02T02:23:04.921Z,0.00
2022-09-02T02:24:04.912Z,0.00
2022-09-02T02:25:04.902Z,0.00
2022-09-02T02:26:04.891Z,0.00
2022-09-02T02:27:04.881Z,0.00
2022-09-02T02:28:05.610Z,0.00
2022-09-02T02:29:04.863Z,0.00
2022-09-02T02:30:04.853Z,0.00
2022-09-02T02:31:04.874Z,0.00
2022-09-02T02:32:04.834Z,0.00
2022-09-02T02:33:04.820Z,0.00
2022-09-02T02:34:04.811Z,0.00
2022-09-02T02:35:04.800Z,0.00
2022-09-02T02:36:04.789Z,0.00
2022-09-02T02:37:04.779Z,0.00
2022-09-02T02:38:04.874Z,0.00
2022-09-02T02:39:04.760Z,0.00
2022-09-02T02:40:04.787Z,0.00
2022-09-02T02:41:04.739Z,0.00
2022-09-02T02:42:04.731Z,0.00
2022-09-02T02:43:04.719Z,0.00
2022-09-02T02:44:04.712Z,0.00
2022-09-02T02:45:04.700Z,0.00
2022-09-02T02:46:04.838Z,0.00
2022-09-02T02:47:04.677Z,0.00
2022-09-02T02:48:04.664Z,0.00
2022-09-02T02:49:04.656Z,0.00
2022-09-02T02:50:04.644Z,0.00
2022-09-02T02:51:04.633Z,0.00
2022-09-02T02:52:04.625Z,0.00
2022-09-02T02:53:04.614Z,0.00
2022-09-02T02:54:04.604Z,0.00
2022-09-02T02:55:04.593Z,0.00
2022-09-02T02:56:04.585Z,0.00
2022-09-02T02:57:04.574Z,0.00
2022-09-02T02:58:04.564Z,0.00
2022-09-02T02:59:04.550Z,0.00
2022-09-02T03:00:04.539Z,0.00
2022-09-02T03:01:04.533Z,0.00
2022-09-02T03:02:04.659Z,0.00
2022-09-02T03:03:04.641Z,0.00
2022-09-02T03:04:04.499Z,0.00
2022-09-02T03:05:04.486Z,0.00
2022-09-02T03:06:04.475Z,0.00
2022-09-02T03:07:04.465Z,0.00
2022-09-02T03:08:04.457Z,0.00
2022-09-02T03:09:04.451Z,0.00
2022-09-02T03:10:04.436Z,0.00
2022-09-02T03:11:04.425Z,0.00
2022-09-02T03:12:04.414Z,0.00
2022-09-02T03:13:04.402Z,0.00
2022-09-02T03:14:04.392Z,0.00
2022-09-02T03:15:04.383Z,0.00
2022-09-02T03:16:04.462Z,0.00
2022-09-02T03:17:04.360Z,0.00
2022-09-02T03:18:04.352Z,0.00
2022-09-02T03:19:04.338Z,0.00
2022-09-02T03:20:04.340Z,0.00
2022-09-02T03:21:04.320Z,0.00
2022-09-02T03:22:04.309Z,0.00
2022-09-02T03:23:04.301Z,0.00
2022-09-02T03:24:04.287Z,0.00
2022-09-02T03:25:04.278Z,0.00
2022-09-02T03:26:04.267Z,0.00
2022-09-02T03:27:04.254Z,0.00
2022-09-02T03:28:04.242Z,0.00
2022-09-02T03:29:04.234Z,0.00
2022-09-02T03:30:04.224Z,0.00
2022-09-02T03:31:04.330Z,0.00
2022-09-02T03:32:04.206Z,0.00
2022-09-02T03:33:04.529Z,0.00
2022-09-02T03:34:04.183Z,0.00
2022-09-02T03:35:04.172Z,0.00
2022-09-02T03:36:04.159Z,0.00
2022-09-02T03:37:04.151Z,0.00
2022-09-02T03:38:04.139Z,0.00
2022-09-02T03:39:04.133Z,0.00
2022-09-02T03:40:04.289Z,0.00
2022-09-02T03:41:04.109Z,0.00
2022-09-02T03:42:05.707Z,0.00
2022-09-02T03:43:04.087Z,0.00
2022-09-02T03:44:04.076Z,0.00
2022-09-02T03:45:04.086Z,0.00
2022-09-02T03:46:04.077Z,0.00
2022-09-02T03:47:04.049Z,0.00
2022-09-02T03:48:04.040Z,0.00
2022-09-02T03:49:04.025Z,0.00
2022-09-02T03:50:04.013Z,0.00
2022-09-02T03:51:04.003Z,0.00
2022-09-02T03:52:03.997Z,0.00
2022-09-02T03:53:03.992Z,0.00
2022-09-02T03:54:03.970Z,0.00
2022-09-02T03:55:03.963Z,0.00
2022-09-02T03:56:03.955Z,0.00
2022-09-02T03:57:03.941Z,0.00
2022-09-02T03:58:08.431Z,0.00
2022-09-02T03:59:03.925Z,0.00
2022-09-02T04:00:03.912Z,0.00
2022-09-02T04:01:03.900Z,0.00
2022-09-02T04:02:04.118Z,0.00
2022-09-02T04:03:03.977Z,0.00
2022-09-02T04:04:03.867Z,0.00
2022-09-02T04:05:03.856Z,0.00
2022-09-02T04:06:03.854Z,0.00
2022-09-02T04:07:03.834Z,1.00
2022-09-02T04:08:03.826Z,1.00
2022-09-02T04:09:03.819Z,1.00
2022-09-02T04:10:03.808Z,1.00
2022-09-02T04:11:03.794Z,1.00
2022-09-02T04:12:03.783Z,0.00
2022-09-02T04:13:03.775Z,0.00
2022-09-02T04:14:03.765Z,0.00
2022-09-02T04:15:03.816Z,0.00
2022-09-02T04:16:03.804Z,2.00
2022-09-02T04:17:03.730Z,2.00
2022-09-02T04:18:03.722Z,4.00
2022-09-02T04:19:03.711Z,0.00
2022-09-02T04:20:03.700Z,4.00
2022-09-02T04:21:03.689Z,2.00
2022-09-02T04:22:03.677Z,1.00
2022-09-02T04:23:03.669Z,1.00
2022-09-02T04:24:03.665Z,11.00
2022-09-02T04:25:03.649Z,7.00
2022-09-02T04:26:03.635Z,8.00
2022-09-02T04:27:04.537Z,6.00
2022-09-02T04:28:03.617Z,15.00
2022-09-02T04:29:03.608Z,18.00
2022-09-02T04:30:03.596Z,18.00
2022-09-02T04:31:03.639Z,21.00
2022-09-02T04:32:03.573Z,21.00
2022-09-02T04:33:03.564Z,20.00
2022-09-02T04:34:03.555Z,25.00
2022-09-02T04:35:03.543Z,32.00
2022-09-02T04:36:03.534Z,40.00
2022-09-02T04:37:03.522Z,46.00
2022-09-02T04:38:03.511Z,55.00
2022-09-02T04:39:03.501Z,60.00
2022-09-02T04:40:03.491Z,69.00
2022-09-02T04:41:03.482Z,77.00
2022-09-02T04:42:03.470Z,84.00
2022-09-02T04:43:03.459Z,92.00
2022-09-02T04:44:03.449Z,100.00
2022-09-02T04:45:03.440Z,119.00
2022-09-02T04:46:03.499Z,143.00
2022-09-02T04:47:03.424Z,166.00
2022-09-02T04:48:03.410Z,206.00
2022-09-02T04:49:03.397Z,245.00
2022-09-02T04:50:03.399Z,280.00
2022-09-02T04:51:03.374Z,308.00
2022-09-02T04:52:03.366Z,347.00
2022-09-02T04:53:03.357Z,391.00
2022-09-02T04:54:03.348Z,408.00
2022-09-02T04:55:03.334Z,445.00
2022-09-02T04:56:03.324Z,480.00
2022-09-02T04:57:03.313Z,512.00
2022-09-02T04:58:03.306Z,542.00
2022-09-02T04:59:03.296Z,573.00
2022-09-02T05:00:03.283Z,602.00
2022-09-02T05:01:03.357Z,630.00
2022-09-02T05:02:03.373Z,655.00
2022-09-02T05:03:03.253Z,681.00
2022-09-02T05:04:03.239Z,708.00
2022-09-02T05:05:03.229Z,729.00
2022-09-02T05:06:03.221Z,770.00
2022-09-02T05:07:03.211Z,800.00
2022-09-02T05:08:03.199Z,838.00
2022-09-02T05:09:03.189Z,892.00
2022-09-02T05:10:03.179Z,942.00
2022-09-02T05:11:03.169Z,991.00
2022-09-02T05:12:03.158Z,1030.00
2022-09-02T05:13:03.148Z,1084.00
2022-09-02T05:14:03.137Z,1119.00
2022-09-02T05:15:03.138Z,1167.00
2022-09-02T05:16:03.165Z,1192.00
2022-09-02T05:17:07.524Z,1206.00
2022-09-02T05:18:03.776Z,1235.00
2022-09-02T05:19:03.084Z,1272.00
2022-09-02T05:20:03.073Z,1306.00
2022-09-02T05:21:03.064Z,1349.00
2022-09-02T05:22:03.052Z,1374.00
2022-09-02T05:23:03.041Z,1409.00
2022-09-02T05:24:03.032Z,1432.00
2022-09-02T05:25:03.022Z,1447.00
2022-09-02T05:26:03.008Z,1463.00
2022-09-02T05:27:03.003Z,1496.00
2022-09-02T05:28:03.000Z,1510.00
2022-09-02T05:29:02.978Z,1535.00
2022-09-02T05:30:02.967Z,1547.00
2022-09-02T05:31:03.031Z,1577.00
2022-09-02T05:32:02.948Z,1603.00
2022-09-02T05:33:02.936Z,1631.00
2022-09-02T05:34:02.925Z,1685.00
2022-09-02T05:35:02.915Z,1732.00
2022-09-02T05:36:02.904Z,1789.00
2022-09-02T05:37:02.892Z,1846.00
2022-09-02T05:38:02.883Z,1917.00
2022-09-02T05:39:02.874Z,1999.00
2022-09-02T05:40:02.861Z,2076.00
2022-09-02T05:41:02.853Z,2154.00
2022-09-02T05:42:02.843Z,2222.00
2022-09-02T05:43:02.830Z,2290.00
2022-09-02T05:44:03.667Z,2365.00
2022-09-02T05:45:02.811Z,2427.00
2022-09-02T05:46:02.844Z,2481.00
2022-09-02T05:47:02.787Z,2551.00
2022-09-02T05:48:02.781Z,2625.00
2022-09-02T05:49:02.768Z,2665.00
2022-09-02T05:50:03.156Z,2713.00
2022-09-02T05:51:02.749Z,2747.00
2022-09-02T05:52:02.737Z,2766.00
2022-09-02T05:53:02.728Z,2764.00
2022-09-02T05:54:02.717Z,2784.00
2022-09-02T05:55:02.708Z,2768.00
2022-09-02T05:56:02.697Z,2761.00
2022-09-02T05:57:02.686Z,2751.00
2022-09-02T05:58:02.678Z,2744.00
2022-09-02T05:59:02.666Z,2748.00
2022-09-02T06:00:02.654Z,2779.00
2022-09-02T06:01:02.646Z,2811.00
2022-09-02T06:02:02.738Z,2855.00
2022-09-02T06:03:02.697Z,2916.00
2022-09-02T06:04:02.614Z,3009.00
2022-09-02T06:05:02.615Z,3130.00
2022-09-02T06:06:06.579Z,3297.00
2022-09-02T06:07:02.582Z,3456.00
2022-09-02T06:08:02.575Z,3598.00
2022-09-02T06:09:02.563Z,3708.00
2022-09-02T06:10:02.552Z,3830.00
2022-09-02T06:11:02.544Z,3929.00
2022-09-02T06:12:02.531Z,4042.00
2022-09-02T06:13:02.527Z,4123.00
2022-09-02T06:14:02.511Z,4250.00
2022-09-02T06:15:02.498Z,4323.00
2022-09-02T06:16:02.586Z,4416.00
2022-09-02T06:17:02.479Z,4524.00
2022-09-02T06:18:02.464Z,4631.00
2022-09-02T06:19:02.454Z,4703.00
2022-09-02T06:20:02.443Z,4784.00
2022-09-02T06:21:02.433Z,4839.00
2022-09-02T06:22:02.423Z,4929.00
2022-09-02T06:23:02.411Z,5022.00
2022-09-02T06:24:02.401Z,5091.00
2022-09-02T06:25:02.392Z,5149.00
2022-09-02T06:26:02.382Z,5214.00
2022-09-02T06:27:02.369Z,5247.00
2022-09-02T06:28:06.923Z,5274.00
2022-09-02T06:29:02.349Z,5346.00
2022-09-02T06:30:02.346Z,5447.00
2022-09-02T06:31:02.378Z,5559.00
2022-09-02T06:32:02.323Z,5671.00
2022-09-02T06:33:02.310Z,5760.00
2022-09-02T06:34:02.297Z,5812.00
2022-09-02T06:35:02.289Z,5811.00
2022-09-02T06:36:02.277Z,5850.00
2022-09-02T06:37:02.264Z,5936.00
2022-09-02T06:38:02.256Z,6015.00
2022-09-02T06:39:02.245Z,6069.00
2022-09-02T06:40:02.234Z,6207.00
2022-09-02T06:41:02.227Z,6307.00
2022-09-02T06:42:02.212Z,6395.00
2022-09-02T06:43:02.203Z,6397.00
2022-09-02T06:44:02.192Z,6496.00
2022-09-02T06:45:02.183Z,6523.00
2022-09-02T06:46:02.219Z,6464.00
2022-09-02T06:47:02.161Z,6558.00
2022-09-02T06:48:02.154Z,6616.00
2022-09-02T06:49:02.140Z,6683.00
2022-09-02T06:50:02.129Z,7001.00
2022-09-02T06:51:02.122Z,6928.00
2022-09-02T06:52:02.113Z,7052.00
2022-09-02T06:53:02.188Z,7230.00
2022-09-02T06:54:02.089Z,7412.00
2022-09-02T06:55:02.080Z,7690.00
2022-09-02T06:56:02.069Z,7769.00
2022-09-02T06:57:02.058Z,7752.00
2022-09-02T06:58:02.048Z,7759.00
2022-09-02T06:59:02.053Z,7837.00
2022-09-02T07:00:02.703Z,7809.00
2022-09-02T07:01:02.074Z,7837.00
2022-09-02T07:02:02.189Z,7909.00
2022-09-02T07:03:01.999Z,7993.00
2022-09-02T07:04:01.988Z,8091.00
2022-09-02T07:05:01.976Z,8168.00
2022-09-02T07:06:01.965Z,8237.00
2022-09-02T07:07:01.961Z,8269.00
2022-09-02T07:08:01.946Z,8347.00
2022-09-02T07:09:01.939Z,8451.00
2022-09-02T07:10:01.927Z,8642.00
2022-09-02T07:11:01.920Z,8675.00
2022-09-02T07:12:04.643Z,8699.00
2022-09-02T07:13:01.897Z,8859.00
2022-09-02T07:14:01.894Z,8825.00
2022-09-02T07:15:01.879Z,8785.00
2022-09-02T07:16:01.869Z,8947.00
2022-09-02T07:17:01.959Z,9853.00
2022-09-02T07:18:01.848Z,9693.00
2022-09-02T07:19:01.834Z,10458.00
2022-09-02T07:20:01.853Z,9402.00
2022-09-02T07:21:01.913Z,9259.00
2022-09-02T07:22:01.803Z,9741.00
2022-09-02T07:23:01.803Z,9924.00
2022-09-02T07:24:01.785Z,11381.00
2022-09-02T07:25:01.773Z,10553.00
2022-09-02T07:26:01.762Z,10436.00
2022-09-02T07:27:01.752Z,11953.00
2022-09-02T07:28:01.744Z,12089.00
2022-09-02T07:29:01.733Z,11910.00
2022-09-02T07:30:01.721Z,12273.00
2022-09-02T07:31:01.754Z,12417.00
2022-09-02T07:32:01.698Z,12761.00
2022-09-02T07:33:01.689Z,12783.00
2022-09-02T07:34:01.683Z,13177.00
2022-09-02T07:35:01.664Z,10193.00
2022-09-02T07:36:01.653Z,10004.00
2022-09-02T07:37:05.058Z,9914.00
2022-09-02T07:38:01.635Z,9956.00
2022-09-02T07:39:01.624Z,10066.00
2022-09-02T07:40:01.617Z,10166.00
2022-09-02T07:41:01.602Z,10421.00
2022-09-02T07:42:01.591Z,10761.00
2022-09-02T07:43:01.587Z,13497.00
2022-09-02T07:44:01.575Z,14253.00
2022-09-02T07:45:01.575Z,10671.00
2022-09-02T07:46:01.622Z,12406.00
2022-09-02T07:47:01.541Z,13681.00
2022-09-02T07:48:01.532Z,14496.00
2022-09-02T07:49:01.520Z,14222.00
2022-09-02T07:50:19.852Z,14231.00
2022-09-02T07:51:02.520Z,12724.00
2022-09-02T07:52:01.490Z,11778.00
2022-09-02T07:53:01.481Z,10601.00
2022-09-02T07:54:01.469Z,10308.00
2022-09-02T07:55:01.466Z,9948.00
2022-09-02T07:56:01.449Z,9885.00
2022-09-02T07:57:01.437Z,10011.00
2022-09-02T07:58:01.436Z,9962.00
2022-09-02T07:59:01.416Z,10104.00
2022-09-02T08:00:01.416Z,9687.00
2022-09-02T08:01:01.497Z,9380.00
2022-09-02T08:02:01.466Z,9292.00
2022-09-02T08:03:01.486Z,9837.00
2022-09-02T08:04:04.131Z,10546.00
2022-09-02T08:05:01.357Z,11013.00
2022-09-02T08:06:01.349Z,12060.00
2022-09-02T08:07:01.338Z,12735.00
2022-09-02T08:08:01.326Z,14144.00
2022-09-02T08:09:01.330Z,15114.00
2022-09-02T08:10:01.315Z,14829.00
2022-09-02T08:12:01.287Z,14504.00
2022-09-02T08:13:01.272Z,14565.00
2022-09-02T08:14:01.265Z,14830.00
2022-09-02T08:15:01.254Z,15338.00
2022-09-02T08:16:01.244Z,14924.00
2022-09-02T08:17:01.317Z,14888.00
2022-09-02T08:18:01.221Z,14309.00
2022-09-02T08:19:01.214Z,14279.00
2022-09-02T08:20:01.205Z,14729.00
2022-09-02T08:21:01.191Z,15081.00
2022-09-02T08:22:01.183Z,15185.00
2022-09-02T08:23:11.018Z,15037.00
2022-09-02T08:24:02.181Z,14392.00
2022-09-02T08:25:01.150Z,14615.00
2022-09-02T08:26:01.143Z,14143.00
2022-09-02T08:27:01.134Z,13649.00
2022-09-02T08:28:01.139Z,13642.00
2022-09-02T08:29:01.110Z,12961.00
2022-09-02T08:30:01.105Z,12926.00
2022-09-02T08:31:01.089Z,12538.00
2022-09-02T08:32:01.158Z,12064.00
2022-09-02T08:33:01.070Z,11837.00
2022-09-02T08:34:01.060Z,11748.00
2022-09-02T08:35:01.056Z,11452.00
2022-09-02T08:36:01.038Z,11324.00
2022-09-02T08:37:01.030Z,10893.00
2022-09-02T08:38:02.311Z,10692.00
2022-09-02T08:39:01.008Z,10268.00
2022-09-02T08:40:01.000Z,10220.00
2022-09-02T08:41:01.006Z,10085.00
2022-09-02T08:43:00.970Z,10535.00
2022-09-02T08:44:00.968Z,10301.00
2022-09-02T08:45:00.950Z,10320.00
2022-09-02T08:46:00.993Z,10266.00
2022-09-02T08:47:00.926Z,10170.00
2022-09-02T08:48:00.918Z,10060.00
2022-09-02T08:49:00.908Z,10228.00
2022-09-02T08:50:00.902Z,10338.00
2022-09-02T08:51:00.889Z,10268.00
2022-09-02T08:52:01.303Z,10199.00
2022-09-02T08:53:00.868Z,10156.00
2022-09-02T08:54:00.858Z,10274.00
2022-09-02T08:55:00.848Z,10611.00
2022-09-02T08:56:00.837Z,11430.00
2022-09-02T08:57:00.827Z,12247.00
2022-09-02T08:58:00.849Z,12730.00
2022-09-02T08:59:00.810Z,13305.00
2022-09-02T09:00:00.799Z,13925.00
2022-09-02T09:01:00.918Z,14199.00
2022-09-02T09:02:00.961Z,14316.00
2022-09-02T09:03:00.770Z,14498.00
2022-09-02T09:04:00.762Z,14615.00
2022-09-02T09:05:00.749Z,14846.00
2022-09-02T09:06:00.739Z,15031.00
2022-09-02T09:07:00.727Z,15154.00
2022-09-02T09:08:00.715Z,15357.00
2022-09-02T09:09:00.708Z,15662.00
2022-09-02T09:10:00.697Z,15878.00
2022-09-02T09:11:00.691Z,15958.00
2022-09-02T09:12:00.682Z,15966.00
2022-09-02T09:13:00.669Z,15922.00
2022-09-02T09:14:00.660Z,15880.00
2022-09-02T09:15:00.651Z,15757.00
2022-09-02T09:16:00.703Z,15720.00
2022-09-02T09:17:00.624Z,15756.00
2022-09-02T09:18:00.617Z,16022.00
2022-09-02T09:19:00.609Z,16143.00
2022-09-02T09:20:00.597Z,16473.00
2022-09-02T09:21:00.586Z,17028.00
2022-09-02T09:22:00.575Z,17745.00
2022-09-02T09:23:00.567Z,18269.00
2022-09-02T09:24:00.553Z,18701.00
2022-09-02T09:25:00.545Z,18734.00
2022-09-02T09:26:00.536Z,18419.00
2022-09-02T09:27:00.525Z,17878.00
2022-09-02T09:28:00.512Z,17508.00
2022-09-02T09:29:00.503Z,22678.00
2022-09-02T09:30:00.493Z,25575.00
2022-09-02T09:31:00.481Z,23271.00
2022-09-02T09:32:00.530Z,23060.00
2022-09-02T09:33:00.499Z,22314.00
2022-09-02T09:34:00.456Z,20526.00
2022-09-02T09:35:00.443Z,21009.00
2022-09-02T09:36:00.432Z,20485.00
2022-09-02T09:37:00.421Z,20554.00
2022-09-02T09:38:00.415Z,20254.00
2022-09-02T09:39:00.404Z,19863.00
2022-09-02T09:40:00.402Z,20511.00
2022-09-02T09:41:00.383Z,20843.00
2022-09-02T09:42:00.373Z,21807.00
2022-09-02T09:44:00.353Z,21351.00
2022-09-02T09:45:00.348Z,20634.00
2022-09-02T09:46:00.439Z,19947.00
2022-09-02T09:47:00.323Z,19899.00
2022-09-02T09:48:00.311Z,19299.00
2022-09-02T09:49:00.308Z,20150.00
2022-09-02T09:50:00.294Z,21462.00
2022-09-02T09:51:00.284Z,21591.00
2022-09-02T09:52:00.277Z,21539.00
2022-09-02T09:53:00.269Z,21467.00
2022-09-02T09:54:00.257Z,21966.00
2022-09-02T09:55:00.248Z,22339.00
2022-09-02T09:56:00.237Z,22346.00
2022-09-02T09:57:00.229Z,22393.00
2022-09-02T09:58:00.221Z,22456.00
2022-09-02T09:59:00.208Z,22236.00
2022-09-02T10:00:00.200Z,22913.00
2022-09-02T10:01:00.271Z,24615.00
2022-09-02T10:02:00.295Z,25597.00
2022-09-02T10:03:00.171Z,25685.00
2022-09-02T10:04:00.159Z,26162.00
2022-09-02T10:05:00.152Z,26604.00
2022-09-02T10:06:00.144Z,22707.00
2022-09-02T10:07:00.131Z,26412.00
2022-09-02T10:08:00.126Z,19229.00
2022-09-02T10:09:00.116Z,24737.00
2022-09-02T10:10:00.150Z,18813.00
2022-09-02T10:11:00.099Z,22691.00
2022-09-02T10:12:00.095Z,26553.00
2022-09-02T10:13:00.087Z,27056.00
2022-09-02T10:14:00.095Z,28908.00
2022-09-02T10:15:00.060Z,32006.00
2022-09-02T10:16:00.137Z,33563.00
2022-09-02T10:17:00.041Z,34037.00
2022-09-02T10:18:00.033Z,29113.00
2022-09-02T10:19:00.023Z,36697.00
2022-09-02T10:20:00.010Z,39760.00
2022-09-02T10:21:16.149Z,43764.00
2022-09-02T10:22:01.113Z,41710.00
2022-09-02T10:23:00.721Z,33142.00
2022-09-02T10:23:59.975Z,36004.00
2022-09-02T10:24:59.964Z,40693.00
2022-09-02T10:25:59.956Z,41480.00
2022-09-02T10:26:59.946Z,41302.00
2022-09-02T10:27:59.940Z,39636.00
2022-09-02T10:29:03.932Z,38426.00
2022-09-02T10:29:59.921Z,32902.00
2022-09-02T10:30:59.909Z,37197.00
2022-09-02T10:31:59.904Z,34316.00
2022-09-02T10:32:59.894Z,38252.00
2022-09-02T10:33:59.886Z,26079.00
2022-09-02T10:34:59.875Z,22093.00
2022-09-02T10:35:59.868Z,20612.00
2022-09-02T10:36:59.858Z,19468.00
2022-09-02T10:37:59.846Z,19253.00
2022-09-02T10:38:59.838Z,19534.00
2022-09-02T10:39:59.836Z,20158.00
2022-09-02T10:40:59.978Z,20608.00
2022-09-02T10:41:59.810Z,21089.00
2022-09-02T10:42:59.799Z,21618.00
2022-09-02T10:43:59.795Z,22133.00
2022-09-02T10:44:59.779Z,22083.00
2022-09-02T10:45:59.771Z,21721.00
2022-09-02T10:46:59.865Z,21678.00
2022-09-02T10:47:59.755Z,21666.00
2022-09-02T10:48:59.747Z,30670.00
2022-09-02T10:49:59.736Z,22406.00
2022-09-02T10:50:59.724Z,31992.00
2022-09-02T10:51:59.715Z,36139.00
2022-09-02T10:52:59.707Z,36888.00
2022-09-02T10:53:59.699Z,21492.00
2022-09-02T10:54:59.686Z,20831.00
2022-09-02T10:55:59.678Z,20711.00
2022-09-02T10:56:59.666Z,20529.00
2022-09-02T10:57:59.658Z,20216.00
2022-09-02T10:59:59.639Z,18791.00
2022-09-02T11:00:59.712Z,18073.00
2022-09-02T11:01:59.620Z,17180.00
2022-09-02T11:02:59.681Z,16406.00
2022-09-02T11:03:59.688Z,16010.00
2022-09-02T11:04:59.592Z,15792.00
2022-09-02T11:05:59.578Z,15538.00
2022-09-02T11:07:02.926Z,15641.00
2022-09-02T11:07:59.559Z,16083.00
2022-09-02T11:08:59.556Z,17406.00
2022-09-02T11:09:59.543Z,18120.00
2022-09-02T11:10:59.537Z,18294.00
2022-09-02T11:12:00.296Z,18274.00
2022-09-02T11:12:59.513Z,18838.00
2022-09-02T11:13:59.503Z,18833.00
2022-09-02T11:14:59.493Z,20384.00
2022-09-02T11:15:59.570Z,19417.00
2022-09-02T11:16:59.474Z,20090.00
2022-09-02T11:17:59.468Z,20781.00
2022-09-02T11:18:59.454Z,21567.00
2022-09-02T11:19:59.442Z,22330.00
2022-09-02T11:20:59.433Z,22624.00
2022-09-02T11:21:59.425Z,23291.00
2022-09-02T11:22:59.412Z,24190.00
2022-09-02T11:23:59.402Z,24654.00
2022-09-02T11:24:59.394Z,24074.00
2022-09-02T11:25:59.383Z,24026.00
2022-09-02T11:26:59.373Z,23928.00
2022-09-02T11:27:59.364Z,23924.00
2022-09-02T11:28:59.351Z,24542.00
2022-09-02T11:29:59.345Z,28539.00
2022-09-02T11:30:59.336Z,45608.00
2022-09-02T11:31:59.331Z,45580.00
2022-09-02T11:32:59.316Z,34993.00
2022-09-02T11:33:59.363Z,38173.00
2022-09-02T11:34:59.294Z,46190.00
2022-09-02T11:35:59.288Z,51750.00
2022-09-02T11:36:59.279Z,49310.00
2022-09-02T11:37:59.265Z,46644.00
2022-09-02T11:38:59.255Z,47538.00
2022-09-02T11:40:11.653Z,50782.00
2022-09-02T11:41:59.244Z,51321.00
2022-09-02T11:42:59.218Z,51077.00
2022-09-02T11:43:59.209Z,47530.00
2022-09-02T11:44:59.202Z,49531.00
2022-09-02T11:45:59.246Z,46396.00
2022-09-02T11:46:59.223Z,48105.00
2022-09-02T11:47:59.171Z,48918.00
2022-09-02T11:48:59.162Z,50504.00
2022-09-02T11:49:59.153Z,50706.00
2022-09-02T11:50:59.144Z,52696.00
2022-09-02T11:52:01.975Z,51503.00
2022-09-02T11:52:59.127Z,52832.00
2022-09-02T11:53:59.116Z,51090.00
2022-09-02T11:55:57.260Z,56785.00
2022-09-02T11:55:59.099Z,56723.00
2022-09-02T11:56:59.091Z,53313.00
2022-09-02T11:59:59.216Z,55854.00
2022-09-02T12:00:00.617Z,55515.00
2022-09-02T12:01:00.607Z,48990.00
2022-09-02T12:02:00.597Z,55671.00
2022-09-02T12:06:05.790Z,52199.00
2022-09-02T12:06:07.415Z,52010.00
2022-09-02T13:03:06.119Z,56430.00
2022-09-02T13:03:07.526Z,55215.00
2022-09-02T13:04:07.518Z,28292.00
2022-09-02T13:05:07.511Z,27876.00
2022-09-02T13:06:07.504Z,27763.00
2022-09-02T13:07:07.495Z,27641.00
2022-09-02T13:08:07.488Z,37362.00
2022-09-02T13:09:07.504Z,38424.00
2022-09-02T13:10:07.468Z,31705.00
2022-09-02T13:12:00.660Z,52467.00
2022-09-02T13:18:02.798Z,51850.00
2022-09-02T13:18:04.681Z,51477.00
2022-09-02T13:19:04.167Z,50701.00
2022-09-02T13:23:46.432Z,50326.00
2022-09-02T13:23:47.810Z,49439.00
2022-09-02T13:35:25.839Z,52254.00
2022-09-02T13:35:27.240Z,46977.00
2022-09-02T13:36:27.231Z,28456.00
2022-09-02T13:37:27.273Z,27078.00
2022-09-02T13:38:27.286Z,26610.00
2022-09-02T13:39:27.206Z,26481.00
2022-09-02T13:40:27.199Z,26305.00
2022-09-02T13:41:27.188Z,26694.00
2022-09-02T13:42:27.178Z,26970.00
2022-09-02T13:43:27.178Z,27011.00